createdAt,value
2023-04-10T00:01:55.785Z,51.40
2023-04-10T00:04:23.749Z,48.50
2023-04-10T00:06:51.664Z,48.70
2023-04-10T00:09:19.487Z,46.80
2023-04-10T00:11:47.443Z,44.60
2023-04-10T00:14:15.379Z,49.20
2023-04-10T00:16:43.239Z,47.30
2023-04-10T00:19:11.341Z,47.50
2023-04-10T00:21:39.255Z,50.40
2023-04-10T00:24:07.511Z,50.80
2023-04-10T00:26:36.262Z,48.00
2023-04-10T00:29:04.348Z,47.60
2023-04-10T00:31:32.333Z,51.90
2023-04-10T00:34:00.397Z,48.20
2023-04-10T00:36:28.475Z,50.40
2023-04-10T00:38:56.395Z,49.70
2023-04-10T00:41:24.240Z,47.00
2023-04-10T00:43:56.968Z,48.00
2023-04-10T00:46:25.212Z,48.90
2023-04-10T00:48:54.712Z,42.80
2023-04-10T00:51:23.110Z,45.30
2023-04-10T00:53:51.838Z,47.40
2023-04-10T00:56:20.912Z,43.40
2023-04-10T00:58:49.331Z,47.70
2023-04-10T01:01:17.868Z,44.30
2023-04-10T01:03:46.225Z,43.30
2023-04-10T01:06:28.342Z,41.80
2023-04-10T01:09:09.756Z,40.70
2023-04-10T01:11:43.480Z,42.00
2023-04-10T01:14:33.428Z,40.00
2023-04-10T01:17:08.037Z,38.00
2023-04-10T01:20:14.554Z,41.40
2023-04-10T01:22:50.790Z,38.60
2023-04-10T01:25:31.475Z,40.50
2023-04-10T01:28:18.944Z,43.00
2023-04-10T01:30:58.431Z,40.20
2023-04-10T01:33:39.020Z,43.10
2023-04-10T01:36:08.312Z,49.20
2023-04-10T01:38:38.160Z,49.60
2023-04-10T01:41:07.371Z,50.60
2023-04-10T01:43:36.970Z,51.20
2023-04-10T01:46:05.421Z,50.90
2023-04-10T01:48:33.284Z,52.80
2023-04-10T01:51:04.991Z,56.40
2023-04-10T01:53:33.742Z,62.60
2023-04-10T01:56:02.981Z,69.70
2023-04-10T01:58:35.756Z,79.60
2023-04-10T02:01:04.626Z,68.00
2023-04-10T02:03:33.055Z,62.00
2023-04-10T02:06:07.211Z,61.40
2023-04-10T02:08:38.032Z,54.50
2023-04-10T02:11:18.726Z,52.40
2023-04-10T02:13:49.325Z,47.50
2023-04-10T02:16:19.928Z,47.80
2023-04-10T02:18:49.888Z,43.90
2023-04-10T02:21:18.455Z,46.90
2023-04-10T02:23:46.556Z,45.70
2023-04-10T02:26:16.471Z,40.00
2023-04-10T02:28:44.299Z,42.10
2023-04-10T02:31:12.169Z,41.00
2023-04-10T02:33:40.045Z,42.90
2023-04-10T02:36:08.483Z,45.80
2023-04-10T02:38:36.340Z,43.10
2023-04-10T02:41:04.948Z,43.50
2023-04-10T02:43:32.791Z,46.80
2023-04-10T02:46:00.718Z,44.00
2023-04-10T02:48:29.697Z,44.50
2023-04-10T02:51:00.369Z,44.80
2023-04-10T02:53:29.510Z,46.00
2023-04-10T02:55:59.843Z,41.70
2023-04-10T02:58:30.459Z,45.60
2023-04-10T03:00:58.678Z,48.60
2023-04-10T03:03:40.514Z,54.00
2023-04-10T03:06:09.811Z,53.70
2023-04-10T03:08:38.221Z,52.60
2023-04-10T03:11:08.008Z,51.50
2023-04-10T03:13:36.034Z,48.60
2023-04-10T03:16:04.223Z,50.70
2023-04-10T03:18:34.281Z,48.40
2023-04-10T03:21:02.705Z,44.10
2023-04-10T03:23:30.628Z,47.70
2023-04-10T03:25:58.559Z,49.70
2023-04-10T03:28:29.692Z,44.70
2023-04-10T03:30:57.674Z,47.30
2023-04-10T03:33:25.876Z,48.40
2023-04-10T03:35:53.964Z,47.50
2023-04-10T03:38:21.916Z,51.70
2023-04-10T03:40:50.349Z,50.70
2023-04-10T03:43:20.710Z,61.30
2023-04-10T03:45:48.723Z,57.50
2023-04-10T03:48:17.993Z,45.90
2023-04-10T03:50:47.537Z,50.10
2023-04-10T03:53:17.213Z,50.10
2023-04-10T03:55:46.131Z,50.40
2023-04-10T03:58:14.311Z,52.90
2023-04-10T04:00:42.385Z,51.90
2023-04-10T04:03:22.957Z,49.90
2023-04-10T04:05:54.080Z,49.80
2023-04-10T04:08:32.482Z,44.80
2023-04-10T04:11:09.584Z,55.30
2023-04-10T04:13:47.383Z,51.80
2023-04-10T04:16:30.216Z,45.90
2023-04-10T04:19:13.898Z,46.70
2023-04-10T04:22:00.561Z,51.00
2023-04-10T04:24:57.576Z,49.20
2023-04-10T04:27:48.268Z,51.30
2023-04-10T04:30:32.743Z,48.90
2023-04-10T04:33:15.714Z,49.20
2023-04-10T04:36:09.907Z,48.20
2023-04-10T04:38:37.768Z,45.80
2023-04-10T04:41:24.687Z,44.90
2023-04-10T04:44:07.868Z,44.60
2023-04-10T04:46:50.951Z,49.80
2023-04-10T04:49:24.941Z,51.70
2023-04-10T04:52:11.645Z,56.60
2023-04-10T04:54:43.221Z,59.90
2023-04-10T04:57:37.448Z,57.90
2023-04-10T05:00:28.726Z,63.70
2023-04-10T05:03:07.052Z,76.90
2023-04-10T05:05:40.350Z,83.70
2023-04-10T05:08:29.074Z,82.20
2023-04-10T05:11:23.464Z,82.20
2023-04-10T05:14:09.915Z,69.50
2023-04-10T05:16:57.968Z,52.40
2023-04-10T05:19:47.171Z,47.20
2023-04-10T05:22:53.246Z,45.10
2023-04-10T05:25:47.602Z,43.50
2023-04-10T05:28:22.797Z,44.00
2023-04-10T05:31:16.507Z,43.70
2023-04-10T05:34:13.838Z,36.70
2023-04-10T05:37:01.550Z,40.40
2023-04-10T05:39:52.171Z,39.70
2023-04-10T05:42:55.287Z,41.80
2023-04-10T05:45:28.873Z,41.60
2023-04-10T05:48:15.369Z,40.60
2023-04-10T05:50:59.080Z,36.10
2023-04-10T05:53:42.834Z,34.60
2023-04-10T05:56:46.204Z,38.10
2023-04-10T05:59:52.463Z,53.80
2023-04-10T06:02:39.089Z,84.10
2023-04-10T06:05:08.596Z,120.30
2023-04-10T06:07:36.731Z,103.20
2023-04-10T06:10:05.396Z,74.50
2023-04-10T06:12:36.167Z,56.50
2023-04-10T06:15:04.825Z,57.10
2023-04-10T06:17:35.453Z,51.60
2023-04-10T06:20:04.633Z,37.30
2023-04-10T06:22:32.723Z,37.90
2023-04-10T06:25:00.640Z,35.20
2023-04-10T06:27:29.012Z,33.00
2023-04-10T06:29:57.147Z,32.90
2023-04-10T06:32:25.122Z,30.90
2023-04-10T06:34:53.045Z,31.00
2023-04-10T06:37:29.272Z,28.60
2023-04-10T06:40:02.711Z,29.30
2023-04-10T06:42:30.725Z,29.00
2023-04-10T06:45:03.192Z,29.60
2023-04-10T06:47:32.246Z,29.60
2023-04-10T06:50:00.235Z,26.70
2023-04-10T06:52:28.139Z,27.10
2023-04-10T06:54:55.978Z,25.60
2023-04-10T06:57:23.852Z,25.70
2023-04-10T06:59:51.697Z,26.40
2023-04-10T07:02:19.657Z,26.20
2023-04-10T07:04:47.624Z,24.10
2023-04-10T07:07:16.039Z,27.30
2023-04-10T07:09:43.969Z,26.90
2023-04-10T07:12:11.895Z,31.00
2023-04-10T07:14:39.771Z,29.70
2023-04-10T07:17:07.936Z,26.30
2023-04-10T07:19:35.922Z,26.90
2023-04-10T07:22:04.149Z,27.90
2023-04-10T07:24:32.689Z,25.60
2023-04-10T07:27:01.682Z,24.80
2023-04-10T07:29:30.830Z,23.90
2023-04-10T07:31:58.804Z,24.90
2023-04-10T07:34:26.781Z,24.00
2023-04-10T07:36:54.622Z,23.90
2023-04-10T07:39:22.511Z,25.00
2023-04-10T07:41:50.564Z,24.70
2023-04-10T07:44:18.593Z,26.10
2023-04-10T07:46:46.457Z,24.70
2023-04-10T07:49:14.314Z,28.50
2023-04-10T07:51:42.208Z,33.40
2023-04-10T07:54:10.050Z,24.50
2023-04-10T07:56:37.958Z,23.30
2023-04-10T07:59:06.014Z,24.10
2023-04-10T08:01:34.153Z,24.70
2023-04-10T08:04:05.616Z,28.40
2023-04-10T08:06:34.051Z,25.20
2023-04-10T08:09:02.153Z,23.50
2023-04-10T08:11:32.056Z,24.00
2023-04-10T08:14:01.891Z,25.50
2023-04-10T08:16:31.877Z,23.60
2023-04-10T08:19:01.405Z,23.30
2023-04-10T08:21:31.940Z,21.30
2023-04-10T08:24:02.077Z,20.90
2023-04-10T08:26:30.041Z,23.40
2023-04-10T08:28:59.851Z,24.70
2023-04-10T08:31:29.069Z,27.30
2023-04-10T08:33:57.586Z,23.60
2023-04-10T08:36:27.176Z,22.00
2023-04-10T08:38:55.421Z,23.50
2023-04-10T08:41:23.281Z,21.70
2023-04-10T08:43:51.304Z,22.20
2023-04-10T08:46:20.172Z,22.80
2023-04-10T08:48:53.230Z,21.20
2023-04-10T08:51:26.000Z,25.30
2023-04-10T08:53:59.181Z,25.00
2023-04-10T08:56:27.544Z,24.00
2023-04-10T08:58:55.582Z,24.40
2023-04-10T09:01:24.194Z,23.40
2023-04-10T09:03:52.529Z,21.90
2023-04-10T09:06:20.403Z,21.10
2023-04-10T09:08:48.244Z,22.50
2023-04-10T09:11:16.171Z,26.90
2023-04-10T09:13:45.083Z,24.80
2023-04-10T09:16:14.302Z,24.20
2023-04-10T09:18:50.695Z,24.00
2023-04-10T09:21:20.885Z,23.80
2023-04-10T09:23:49.667Z,24.40
2023-04-10T09:26:24.619Z,21.70
2023-04-10T09:28:56.857Z,21.30
2023-04-10T09:31:34.065Z,19.90
2023-04-10T09:34:23.781Z,21.30
2023-04-10T09:36:59.990Z,19.90
2023-04-10T09:39:36.077Z,21.40
2023-04-10T09:42:04.620Z,25.20
2023-04-10T09:44:37.365Z,19.50
2023-04-10T09:47:14.205Z,22.90
2023-04-10T09:49:50.476Z,22.40
2023-04-10T09:52:22.563Z,20.30
2023-04-10T09:54:50.411Z,21.50
2023-04-10T09:57:20.118Z,23.10
2023-04-10T09:59:52.871Z,22.10
2023-04-10T10:02:23.184Z,21.20
2023-04-10T10:04:52.553Z,21.50
2023-04-10T10:07:22.757Z,20.40
2023-04-10T10:09:52.497Z,19.40
2023-04-10T10:12:29.739Z,20.90
2023-04-10T10:15:02.982Z,20.50
2023-04-10T10:17:37.926Z,21.90
2023-04-10T10:20:10.693Z,20.70
2023-04-10T10:22:38.722Z,22.80
2023-04-10T10:25:08.885Z,26.40
2023-04-10T10:27:38.755Z,23.20
2023-04-10T10:30:25.422Z,24.40
2023-04-10T10:32:58.338Z,19.30
2023-04-10T10:35:29.651Z,18.90
2023-04-10T10:38:00.505Z,20.80
2023-04-10T10:40:37.323Z,20.30
2023-04-10T10:43:38.103Z,22.70
2023-04-10T10:46:12.893Z,22.00
2023-04-10T10:48:40.888Z,23.60
2023-04-10T10:51:08.790Z,29.30
2023-04-10T10:53:43.871Z,28.30
2023-04-10T10:56:20.766Z,27.80
2023-04-10T10:58:58.794Z,26.50
2023-04-10T11:01:27.544Z,31.70
2023-04-10T11:03:55.595Z,33.80
2023-04-10T11:06:51.243Z,31.40
2023-04-10T11:09:52.077Z,31.00
2023-04-10T11:12:23.528Z,26.70
2023-04-10T11:15:03.200Z,25.40
2023-04-10T11:17:50.800Z,25.20
2023-04-10T11:20:21.900Z,26.10
2023-04-10T11:23:11.313Z,26.00
2023-04-10T11:25:53.103Z,27.20
2023-04-10T11:28:33.155Z,24.10
2023-04-10T11:31:22.104Z,26.60
2023-04-10T11:34:10.947Z,25.20
2023-04-10T11:36:42.069Z,22.20
2023-04-10T11:39:17.841Z,22.30
2023-04-10T11:41:50.847Z,22.20
2023-04-10T11:44:35.468Z,22.70
2023-04-10T11:47:03.507Z,20.90
2023-04-10T11:49:32.960Z,20.80
2023-04-10T11:52:01.139Z,21.70
2023-04-10T11:54:29.699Z,23.30
2023-04-10T11:57:03.309Z,22.60
2023-04-10T11:59:33.438Z,22.80
2023-04-10T12:02:15.401Z,23.20
2023-04-10T12:04:44.353Z,21.80
2023-04-10T12:07:12.501Z,20.00
2023-04-10T12:09:40.920Z,21.60
2023-04-10T12:12:09.184Z,21.70
2023-04-10T12:14:38.280Z,21.20
2023-04-10T12:17:11.752Z,20.60
2023-04-10T12:22:11.985Z,20.40
2023-04-10T12:24:45.033Z,19.80
2023-04-10T12:27:28.693Z,18.50
2023-04-10T12:29:58.063Z,18.80
2023-04-10T12:32:27.635Z,18.50
2023-04-10T12:34:58.278Z,20.50
2023-04-10T12:37:54.394Z,19.90
2023-04-10T12:40:22.322Z,19.20
2023-04-10T12:42:50.205Z,17.80
2023-04-10T12:45:18.052Z,18.50
2023-04-10T12:47:47.924Z,18.60
2023-04-10T12:50:18.335Z,20.00
2023-04-10T12:53:02.004Z,18.30
2023-04-10T12:55:31.255Z,18.20
2023-04-10T12:58:17.453Z,19.60
2023-04-10T13:00:46.106Z,19.60
2023-04-10T13:03:14.309Z,18.10
2023-04-10T13:05:43.265Z,17.10
2023-04-10T13:08:11.095Z,16.50
2023-04-10T13:10:39.001Z,17.00
2023-04-10T13:13:07.287Z,17.50
2023-04-10T13:15:35.459Z,16.20
2023-04-10T13:18:07.031Z,16.80
2023-04-10T13:20:36.136Z,17.20
2023-04-10T13:23:04.309Z,16.80
2023-04-10T13:25:33.875Z,16.30
2023-04-10T13:28:01.925Z,16.00
2023-04-10T13:30:29.818Z,16.00
2023-04-10T13:32:57.727Z,16.60
2023-04-10T13:35:25.791Z,15.00
2023-04-10T13:37:54.286Z,15.30
2023-04-10T13:40:22.297Z,14.70
2023-04-10T13:42:50.214Z,15.50
2023-04-10T13:45:18.339Z,12.90
2023-04-10T13:47:46.222Z,16.20
2023-04-10T13:50:14.136Z,16.00
2023-04-10T13:52:42.153Z,15.00
2023-04-10T13:55:10.547Z,15.50
2023-04-10T13:57:38.993Z,19.00
2023-04-10T14:00:10.322Z,17.50
2023-04-10T14:02:41.098Z,17.80
2023-04-10T14:05:09.671Z,19.90
2023-04-10T14:07:37.556Z,19.40
2023-04-10T14:10:07.481Z,20.90
2023-04-10T14:12:36.264Z,20.40
2023-04-10T14:15:06.320Z,18.30
2023-04-10T14:17:34.795Z,25.30
2023-04-10T14:20:02.789Z,23.10
2023-04-10T14:22:31.759Z,20.70
2023-04-10T14:25:11.702Z,20.50
2023-04-10T14:27:40.734Z,20.40
2023-04-10T14:30:10.122Z,24.50
2023-04-10T14:32:41.829Z,22.90
2023-04-10T14:35:10.704Z,39.80
2023-04-10T14:37:38.896Z,28.60
2023-04-10T14:40:07.792Z,26.30
2023-04-10T14:42:36.172Z,33.50
2023-04-10T14:45:05.595Z,35.40
2023-04-10T14:47:33.696Z,25.10
2023-04-10T14:50:01.817Z,22.40
2023-04-10T14:52:29.612Z,19.40
2023-04-10T14:54:57.484Z,18.80
2023-04-10T14:57:25.476Z,17.70
2023-04-10T14:59:53.325Z,18.00
2023-04-10T15:02:21.534Z,18.20
2023-04-10T15:04:49.489Z,19.30
2023-04-10T15:07:17.457Z,17.50
2023-04-10T15:09:46.269Z,16.50
2023-04-10T15:12:14.419Z,17.00
2023-04-10T15:14:42.703Z,17.50
2023-04-10T15:17:10.657Z,16.10
2023-04-10T15:19:38.545Z,18.60
2023-04-10T15:22:06.377Z,16.80
2023-04-10T15:24:46.937Z,18.40
2023-04-10T15:27:21.354Z,16.80
2023-04-10T15:29:49.682Z,16.70
2023-04-10T15:32:17.721Z,16.50
2023-04-10T15:34:45.720Z,16.20
2023-04-10T15:37:13.571Z,15.00
2023-04-10T15:39:41.468Z,17.00
2023-04-10T15:42:09.433Z,13.50
2023-04-10T15:44:37.370Z,13.50
2023-04-10T15:47:05.269Z,15.00
2023-04-10T15:49:38.381Z,14.10
2023-04-10T15:52:07.148Z,15.40
2023-04-10T15:54:35.405Z,16.10
2023-04-10T15:57:03.802Z,15.90
2023-04-10T15:59:33.319Z,15.00
2023-04-10T16:02:01.800Z,15.60
2023-04-10T16:04:30.988Z,15.10
2023-04-10T16:06:59.376Z,14.70
2023-04-10T16:09:27.999Z,15.50
2023-04-10T16:11:56.324Z,15.90
2023-04-10T16:14:24.464Z,17.70
2023-04-10T16:16:52.639Z,17.20
2023-04-10T16:19:21.154Z,15.40
2023-04-10T16:21:50.220Z,16.20
2023-04-10T16:24:18.319Z,14.40
2023-04-10T16:26:46.394Z,14.40
2023-04-10T16:29:16.033Z,16.40
2023-04-10T16:31:44.191Z,16.00
2023-04-10T16:34:12.115Z,16.40
2023-04-10T16:36:40.251Z,16.10
2023-04-10T16:39:08.649Z,18.10
2023-04-10T16:41:36.803Z,20.00
2023-04-10T16:44:04.946Z,19.20
2023-04-10T16:46:33.228Z,21.20
2023-04-10T16:49:01.690Z,18.40
2023-04-10T16:51:29.945Z,17.70
2023-04-10T16:53:57.811Z,18.20
2023-04-10T16:56:26.186Z,20.70
2023-04-10T16:58:54.827Z,18.20
2023-04-10T17:01:27.285Z,23.00
2023-04-10T17:03:55.670Z,24.80
2023-04-10T17:06:23.811Z,21.20
2023-04-10T17:08:51.659Z,20.50
2023-04-10T17:11:19.885Z,22.10
2023-04-10T17:13:47.787Z,26.90
2023-04-10T17:16:16.228Z,34.60
2023-04-10T17:18:46.047Z,32.90
2023-04-10T17:21:14.024Z,33.60
2023-04-10T17:23:42.568Z,39.90
2023-04-10T17:26:15.103Z,40.60
2023-04-10T17:28:46.723Z,36.40
2023-04-10T17:31:15.037Z,38.10
2023-04-10T17:33:44.318Z,42.60
2023-04-10T17:36:13.144Z,46.60
2023-04-10T17:38:42.277Z,54.10
2023-04-10T17:41:15.496Z,48.40
2023-04-10T17:43:43.880Z,46.10
2023-04-10T17:46:15.484Z,28.80
2023-04-10T17:48:44.534Z,27.50
2023-04-10T17:51:12.887Z,29.50
2023-04-10T17:53:41.218Z,27.10
2023-04-10T17:56:18.798Z,28.70
2023-04-10T17:58:47.195Z,29.10
2023-04-10T18:01:27.536Z,31.70
2023-04-10T18:03:56.287Z,28.10
2023-04-10T18:06:24.834Z,28.50
2023-04-10T18:08:53.226Z,31.50
2023-04-10T18:11:22.577Z,31.90
2023-04-10T18:13:50.847Z,32.40
2023-04-10T18:16:19.117Z,35.40
2023-04-10T18:18:47.482Z,34.10
2023-04-10T18:21:16.083Z,42.40
2023-04-10T18:23:44.663Z,37.20
2023-04-10T18:26:13.285Z,35.00
2023-04-10T18:28:43.183Z,42.80
2023-04-10T18:31:14.662Z,44.30
2023-04-10T18:33:43.437Z,42.20
2023-04-10T18:36:13.926Z,44.90
2023-04-10T18:38:43.821Z,58.90
2023-04-10T18:41:12.024Z,58.60
2023-04-10T18:43:40.182Z,49.60
2023-04-10T18:46:08.402Z,50.00
2023-04-10T18:48:42.778Z,45.20
2023-04-10T18:51:13.854Z,41.80
2023-04-10T18:53:42.031Z,43.00
2023-04-10T18:56:10.229Z,46.10
2023-04-10T18:58:38.280Z,77.50
2023-04-10T19:01:06.885Z,77.80
2023-04-10T19:03:35.295Z,102.30
2023-04-10T19:06:03.781Z,109.50
2023-04-10T19:08:31.689Z,101.30
2023-04-10T19:11:03.208Z,90.90
2023-04-10T19:13:31.274Z,67.00
2023-04-10T19:16:03.445Z,61.60
2023-04-10T19:18:32.197Z,77.10
2023-04-10T19:21:00.378Z,78.30
2023-04-10T19:37:05.109Z,58.70
2023-04-10T19:39:33.368Z,57.30
2023-04-10T19:42:03.309Z,58.90
2023-04-10T19:44:31.719Z,67.10
2023-04-10T19:47:00.137Z,57.70
2023-04-10T19:49:28.624Z,77.90
2023-04-10T19:51:57.267Z,61.40
2023-04-10T19:54:25.310Z,59.30
2023-04-10T19:56:53.390Z,63.20
2023-04-10T19:59:21.645Z,58.30
2023-04-10T20:01:49.894Z,53.90
2023-04-10T20:04:18.007Z,61.20
2023-04-10T20:06:46.769Z,65.70
2023-04-10T20:09:15.680Z,69.20
2023-04-10T20:11:43.570Z,69.60
2023-04-10T20:14:11.455Z,72.40
2023-04-10T20:16:41.154Z,65.10
2023-04-10T20:19:09.256Z,67.80
2023-04-10T20:21:37.103Z,68.80
2023-04-10T20:24:05.278Z,98.90
2023-04-10T20:26:33.928Z,105.10
2023-04-10T20:29:01.907Z,104.20
2023-04-10T20:31:30.552Z,86.80
2023-04-10T20:33:59.522Z,82.70
2023-04-10T20:36:27.494Z,72.30
2023-04-10T20:38:55.631Z,67.80
2023-04-10T20:41:25.283Z,58.30
2023-04-10T20:43:55.761Z,56.70
2023-04-10T20:46:24.723Z,56.00
2023-04-10T20:48:55.685Z,61.50
2023-04-10T20:51:23.793Z,58.80
2023-04-10T20:53:51.723Z,79.60
2023-04-10T20:56:21.132Z,53.70
2023-04-10T20:58:50.702Z,54.90
2023-04-10T21:01:18.588Z,52.90
2023-04-10T21:03:46.786Z,52.10
2023-04-10T21:06:15.438Z,57.60
2023-04-10T21:08:43.425Z,53.30
2023-04-10T21:11:11.446Z,50.90
2023-04-10T21:13:39.308Z,52.20
2023-04-10T21:16:07.427Z,60.80
2023-04-10T21:18:35.409Z,67.50
2023-04-10T21:21:03.449Z,67.20
2023-04-10T21:23:31.275Z,65.60
2023-04-10T21:25:59.207Z,58.20
2023-04-10T21:28:27.668Z,58.00
2023-04-10T21:30:55.557Z,52.80
2023-04-10T21:33:23.496Z,51.80
2023-04-10T21:35:51.377Z,49.20
2023-04-10T21:38:19.396Z,51.10
2023-04-10T21:40:54.460Z,49.80
2023-04-10T21:43:22.444Z,47.90
2023-04-10T21:45:50.381Z,50.30
2023-04-10T21:48:20.528Z,47.20
2023-04-10T21:50:49.814Z,47.80
2023-04-10T21:53:17.705Z,44.70
2023-04-10T21:55:45.866Z,43.70
2023-04-10T21:58:13.734Z,44.60
2023-04-10T22:00:42.570Z,45.10
2023-04-10T22:03:10.719Z,48.00
2023-04-10T22:05:38.903Z,45.20
2023-04-10T22:08:06.761Z,42.70
2023-04-10T22:10:35.210Z,44.50
2023-04-10T22:13:03.169Z,47.60
2023-04-10T22:15:31.162Z,50.20
2023-04-10T22:17:59.255Z,49.10
2023-04-10T22:20:27.187Z,44.60
2023-04-10T22:22:55.057Z,46.30
2023-04-10T22:25:22.972Z,49.30
2023-04-10T22:27:50.912Z,47.70
2023-04-10T22:30:18.820Z,48.50
2023-04-10T22:32:46.763Z,46.80
2023-04-10T22:35:15.890Z,46.10
2023-04-10T22:37:44.382Z,45.20
2023-04-10T22:40:12.307Z,48.90
2023-04-10T22:42:40.730Z,41.40
2023-04-10T22:45:09.003Z,41.60
2023-04-10T22:47:36.852Z,40.90
2023-04-10T22:50:05.582Z,40.50
2023-04-10T22:52:33.565Z,43.60
2023-04-10T22:55:01.539Z,40.20
2023-04-10T22:57:29.456Z,40.00
2023-04-10T22:59:59.375Z,45.90
2023-04-10T23:02:28.486Z,40.20
2023-04-10T23:04:57.701Z,40.20
2023-04-10T23:07:27.809Z,37.40
2023-04-10T23:09:55.760Z,38.20
2023-04-10T23:12:23.719Z,37.00
2023-04-10T23:14:51.600Z,45.30
2023-04-10T23:17:20.275Z,46.80
2023-04-10T23:19:48.160Z,44.70
2023-04-10T23:22:16.025Z,45.10
2023-04-10T23:24:43.920Z,44.00
2023-04-10T23:27:11.903Z,43.40
2023-04-10T23:29:39.763Z,43.80
2023-04-10T23:32:08.222Z,41.70
2023-04-10T23:34:36.252Z,42.10
2023-04-10T23:37:04.178Z,42.90
2023-04-10T23:39:32.121Z,44.80
2023-04-10T23:42:00.108Z,41.90
2023-04-10T23:44:28.020Z,38.60
2023-04-10T23:46:56.266Z,38.10
2023-04-10T23:49:24.432Z,37.70
2023-04-10T23:51:52.392Z,39.20
2023-04-10T23:54:20.256Z,34.40
2023-04-10T23:56:48.198Z,32.10
2023-04-10T23:59:17.070Z,33.50
